createdAt,value
2023-03-22T00:04:45.949Z,19.70
2023-03-22T00:09:47.931Z,19.68
2023-03-22T00:14:49.873Z,19.64
2023-03-22T00:19:54.687Z,19.67
2023-03-22T00:24:56.617Z,19.64
2023-03-22T00:29:58.785Z,19.63
2023-03-22T00:35:02.099Z,19.67
2023-03-22T00:40:05.554Z,19.67
2023-03-22T00:45:10.012Z,19.68
2023-03-22T00:50:11.955Z,19.64
2023-03-22T00:55:14.167Z,19.64
2023-03-22T01:00:16.457Z,19.64
2023-03-22T01:05:22.144Z,19.66
2023-03-22T01:10:24.224Z,19.64
2023-03-22T01:15:26.365Z,19.60
2023-03-22T01:20:29.101Z,19.62
2023-03-22T01:25:31.464Z,19.60
2023-03-22T01:30:33.822Z,19.62
2023-03-22T01:35:36.686Z,19.63
2023-03-22T01:40:39.694Z,19.60
2023-03-22T01:45:48.336Z,19.59
2023-03-22T01:50:59.019Z,19.60
2023-03-22T01:56:01.895Z,19.58
2023-03-22T02:01:04.888Z,19.60
2023-03-22T02:06:07.102Z,19.62
2023-03-22T02:11:15.026Z,19.65
2023-03-22T02:16:35.740Z,19.56
2023-03-22T02:22:10.058Z,19.55
2023-03-22T02:27:36.241Z,19.59
2023-03-22T02:32:59.086Z,19.55
2023-03-22T02:38:23.009Z,19.59
2023-03-22T02:43:34.706Z,19.59
2023-03-22T02:48:55.102Z,19.55
2023-03-22T02:54:04.136Z,19.57
2023-03-22T02:59:08.482Z,19.58
2023-03-22T03:04:16.995Z,19.60
2023-03-22T03:09:20.951Z,19.59
2023-03-22T03:14:31.369Z,19.59
2023-03-22T03:19:41.600Z,19.55
2023-03-22T03:25:14.842Z,19.55
2023-03-22T03:30:50.644Z,19.55
2023-03-22T03:36:07.095Z,19.58
2023-03-22T03:41:13.612Z,19.61
2023-03-22T03:46:16.445Z,19.56
2023-03-22T03:51:18.421Z,19.54
2023-03-22T03:56:20.705Z,19.60
2023-03-22T04:01:24.352Z,19.59
2023-03-22T04:06:26.364Z,19.54
2023-03-22T04:11:28.342Z,19.56
2023-03-22T04:16:30.367Z,19.55
2023-03-22T04:21:32.358Z,19.57
2023-03-22T04:26:35.193Z,19.57
2023-03-22T04:31:37.859Z,19.55
2023-03-22T04:36:39.959Z,19.55
2023-03-22T04:41:41.993Z,19.54
2023-03-22T04:46:44.861Z,19.58
2023-03-22T04:51:46.903Z,19.55
2023-03-22T04:56:49.006Z,19.50
2023-03-22T05:01:51.819Z,19.55
2023-03-22T05:06:54.113Z,19.56
2023-03-22T05:11:56.207Z,19.50
2023-03-22T05:16:58.700Z,19.54
2023-03-22T05:22:02.233Z,19.54
2023-03-22T05:27:04.406Z,19.52
2023-03-22T05:32:06.532Z,19.51
2023-03-22T05:37:08.445Z,19.58
2023-03-22T05:42:10.627Z,19.57
2023-03-22T05:47:12.719Z,19.56
2023-03-22T05:52:14.772Z,19.54
2023-03-22T05:57:17.878Z,19.51
2023-03-22T06:02:21.226Z,19.50
2023-03-22T06:07:23.052Z,19.54
2023-03-22T06:12:28.829Z,19.56
2023-03-22T06:17:31.887Z,19.51
2023-03-22T06:22:33.965Z,19.53
2023-03-22T06:27:35.892Z,19.53
2023-03-22T06:32:37.720Z,19.55
2023-03-22T06:37:39.785Z,19.51
2023-03-22T06:42:41.728Z,19.49
2023-03-22T06:47:46.802Z,19.51
2023-03-22T06:52:48.690Z,19.55
2023-03-22T06:57:50.605Z,19.52
2023-03-22T07:02:52.895Z,19.52
2023-03-22T07:07:55.180Z,19.47
2023-03-22T07:12:57.737Z,19.49
2023-03-22T07:18:01.184Z,19.48
2023-03-22T07:23:03.237Z,19.52
2023-03-22T07:28:07.177Z,19.50
2023-03-22T07:33:10.959Z,19.47
2023-03-22T07:38:13.541Z,19.49
2023-03-22T07:43:15.643Z,19.54
2023-03-22T07:48:18.381Z,19.37
2023-03-22T07:53:20.697Z,19.27
2023-03-22T07:58:22.818Z,19.29
2023-03-22T08:03:25.665Z,19.34
2023-03-22T08:08:27.646Z,19.57
2023-03-22T08:13:29.926Z,19.72
2023-03-22T08:18:32.003Z,19.82
2023-03-22T08:23:41.458Z,19.90
2023-03-22T08:28:44.436Z,19.98
2023-03-22T08:33:46.621Z,19.88
2023-03-22T08:38:49.307Z,19.82
2023-03-22T08:43:51.360Z,19.62
2023-03-22T08:48:53.480Z,19.72
2023-03-22T08:53:58.972Z,19.76
2023-03-22T08:59:00.872Z,19.94
2023-03-22T09:04:04.547Z,20.12
2023-03-22T09:09:06.700Z,20.16
2023-03-22T09:14:10.118Z,20.08
2023-03-22T09:19:12.216Z,20.08
2023-03-22T09:24:14.405Z,20.14
2023-03-22T09:29:16.527Z,20.18
2023-03-22T09:34:18.463Z,20.02
2023-03-22T09:39:20.433Z,19.97
2023-03-22T09:44:31.820Z,19.98
2023-03-22T09:49:52.650Z,19.83
2023-03-22T09:54:55.029Z,19.86
2023-03-22T10:00:24.812Z,19.91
2023-03-22T10:05:37.562Z,19.87
2023-03-22T10:10:43.384Z,19.98
2023-03-22T10:15:46.528Z,19.87
2023-03-22T10:21:00.781Z,19.96
2023-03-22T10:26:04.452Z,20.00
2023-03-22T10:31:07.032Z,19.99
2023-03-22T10:36:14.064Z,19.93
2023-03-22T10:41:21.341Z,19.97
2023-03-22T10:46:26.726Z,20.02
2023-03-22T10:51:34.681Z,19.94
2023-03-22T10:56:36.420Z,20.02
2023-03-22T11:01:45.051Z,19.82
2023-03-22T11:06:56.207Z,19.78
2023-03-22T11:12:00.260Z,19.79
2023-03-22T11:17:14.859Z,19.88
2023-03-22T11:22:43.756Z,19.85
2023-03-22T11:28:13.809Z,19.92
2023-03-22T11:33:19.364Z,19.86
2023-03-22T11:38:39.735Z,19.68
2023-03-22T11:43:48.609Z,19.72
2023-03-22T11:49:01.132Z,19.72
2023-03-22T11:54:19.924Z,19.75
2023-03-22T11:59:27.793Z,19.73
2023-03-22T12:04:34.832Z,19.79
2023-03-22T12:10:16.158Z,19.75
2023-03-22T12:15:29.419Z,19.74
2023-03-22T12:20:42.520Z,19.69
2023-03-22T12:25:51.857Z,19.70
2023-03-22T12:30:56.799Z,19.77
2023-03-22T12:36:11.700Z,19.77
2023-03-22T12:41:17.361Z,19.76
2023-03-22T12:46:36.499Z,19.77
2023-03-22T12:51:38.562Z,19.77
2023-03-22T12:56:45.298Z,19.74
2023-03-22T13:01:53.328Z,19.74
2023-03-22T13:06:58.807Z,19.66
2023-03-22T13:12:16.804Z,19.76
2023-03-22T13:17:25.638Z,19.84
2023-03-22T13:22:50.683Z,19.78
2023-03-22T13:27:57.058Z,19.92
2023-03-22T13:33:10.049Z,19.83
2023-03-22T13:38:22.466Z,19.75
2023-03-22T13:43:32.536Z,19.75
2023-03-22T13:48:55.431Z,19.73
2023-03-22T13:54:24.112Z,19.69
2023-03-22T13:59:32.540Z,19.73
2023-03-22T14:04:53.623Z,19.68
2023-03-22T14:10:06.978Z,19.66
2023-03-22T14:15:15.132Z,19.69
2023-03-22T14:20:22.991Z,19.71
2023-03-22T14:55:51.601Z,19.75
2023-03-22T15:00:53.747Z,19.72
2023-03-22T15:05:55.866Z,19.72
2023-03-22T15:11:03.165Z,19.76
2023-03-22T15:16:07.375Z,19.72
2023-03-22T15:21:11.279Z,19.70
2023-03-22T15:26:18.729Z,19.69
2023-03-22T15:31:42.558Z,19.71
2023-03-22T15:36:46.742Z,19.74
2023-03-22T15:41:53.013Z,19.70
2023-03-22T15:47:06.733Z,19.68
2023-03-22T15:52:27.830Z,19.64
2023-03-22T15:57:35.528Z,19.70
2023-03-22T16:03:12.176Z,19.68
2023-03-22T16:08:16.320Z,19.56
2023-03-22T16:13:23.473Z,19.68
2023-03-22T16:18:25.473Z,19.69
2023-03-22T16:23:27.878Z,19.29
2023-03-22T16:28:31.443Z,19.69
2023-03-22T16:33:33.382Z,19.82
2023-03-22T16:38:35.755Z,19.84
2023-03-22T16:43:37.709Z,19.81
2023-03-22T16:48:40.243Z,19.84
2023-03-22T16:53:42.152Z,19.84
2023-03-22T16:58:44.137Z,19.82
2023-03-22T17:03:49.489Z,19.68
2023-03-22T17:08:51.973Z,19.71
2023-03-22T17:13:55.903Z,19.71
2023-03-22T17:18:57.849Z,19.79
2023-03-22T17:23:59.871Z,19.80
2023-03-22T17:29:01.864Z,19.82
2023-03-22T17:34:04.008Z,19.80
2023-03-22T17:39:32.416Z,19.79
2023-03-22T17:44:32.265Z,19.83
2023-03-22T17:49:34.611Z,19.78
2023-03-22T17:59:45.767Z,19.73
2023-03-22T18:04:47.760Z,19.72
2023-03-22T18:09:50.243Z,19.67
2023-03-22T18:14:52.703Z,19.67
2023-03-22T18:20:12.044Z,19.70
2023-03-22T18:25:17.279Z,19.71
2023-03-22T18:30:23.418Z,19.69
2023-03-22T18:35:25.704Z,19.69
2023-03-22T18:41:07.459Z,19.74
2023-03-22T18:46:00.723Z,19.70
2023-03-22T18:51:11.615Z,19.73
2023-03-22T19:01:17.480Z,19.69
2023-03-22T19:06:20.461Z,19.74
2023-03-22T19:11:22.920Z,19.75
2023-03-22T19:16:24.898Z,19.73
2023-03-22T19:21:32.138Z,19.73
2023-03-22T19:26:34.947Z,19.74
2023-03-22T19:31:37.229Z,19.74
2023-03-22T19:36:39.656Z,19.72
2023-03-22T19:46:53.214Z,19.74
2023-03-22T19:52:00.218Z,19.74
2023-03-22T19:57:02.205Z,19.72
2023-03-22T20:02:04.696Z,19.73
2023-03-22T20:07:08.533Z,19.73
2023-03-22T20:12:10.846Z,19.75
2023-03-22T20:17:20.872Z,19.76
2023-03-22T20:22:27.891Z,19.76
2023-03-22T20:27:30.061Z,19.76
2023-03-22T20:32:32.951Z,19.78
2023-03-22T20:37:35.533Z,19.75
2023-03-22T20:42:38.410Z,19.76
2023-03-22T20:47:40.443Z,19.75
2023-03-22T20:52:42.434Z,19.74
2023-03-22T20:57:44.239Z,19.71
2023-03-22T21:02:46.355Z,19.73
2023-03-22T21:07:48.922Z,19.77
2023-03-22T21:12:51.193Z,19.74
2023-03-22T21:17:55.049Z,19.72
2023-03-22T21:22:57.018Z,19.73
2023-03-22T21:27:59.468Z,19.76
2023-03-22T21:33:01.936Z,19.74
2023-03-22T21:38:10.301Z,19.72
2023-03-22T21:43:12.495Z,19.73
2023-03-22T21:48:15.057Z,19.75
2023-03-22T21:53:17.365Z,19.75
2023-03-22T21:58:23.969Z,19.66
2023-03-22T22:03:27.403Z,19.82
2023-03-22T22:08:29.542Z,19.85
2023-03-22T22:13:31.972Z,19.86
2023-03-22T22:18:36.760Z,19.82
2023-03-22T22:23:41.966Z,19.78
2023-03-22T22:28:46.012Z,19.75
2023-03-22T22:33:48.174Z,19.73
2023-03-22T22:38:50.235Z,19.72
2023-03-22T22:43:52.313Z,19.73
2023-03-22T22:48:54.870Z,19.74
2023-03-22T22:53:57.499Z,19.69
2023-03-22T22:58:59.550Z,19.73
2023-03-22T23:04:01.531Z,19.72
2023-03-22T23:09:04.013Z,19.70
2023-03-22T23:14:06.388Z,19.69
2023-03-22T23:19:08.352Z,19.73
2023-03-22T23:24:11.680Z,19.70
2023-03-22T23:29:16.212Z,19.72
2023-03-22T23:34:18.669Z,19.74
2023-03-22T23:39:22.991Z,19.69
2023-03-22T23:44:25.244Z,19.68
2023-03-22T23:49:27.668Z,19.68
2023-03-22T23:54:29.987Z,19.71
2023-03-22T23:59:32.457Z,19.68
